Time;durP1;ratioP1;P1;durP2;ratioP2;P2;SDS_P1;SDS_P2;PMS_P1;PMS_P2;Temp;Humidity;BMP_temperature;BMP_pressure;BME280_temperature;BME280_humidity;BME280_pressure;Samples;Min_cycle;Max_cycle;Signal;HPM_P1;HPM_P2
2022/07/08 12:16:28;;;;;;;;;;;;;;;27.31;60.09;98821.09;4789912;30;20263;-70
2022/07/08 12:18:55;;;;;;;;;;;;;;;27.40;64.00;98822.31;4792425;30;19957;-70
2022/07/08 12:21:22;;;;;;;;;;;;;;;27.45;58.39;98818.75;4794252;29;19947;-71
2022/07/08 12:23:59;;;;;;;;;;;;;;;27.47;63.06;98822.69;4788534;30;20304;-69
2022/07/08 12:26:27;;;;;;;;;;;;;;;27.48;59.85;98812.78;4793517;29;19958;-70
2022/07/08 12:28:55;;;;;;;;;;;;;;;27.59;63.67;98818.69;4790934;29;20364;-69
2022/07/08 12:31:34;;;;;;;;;;;;;;;27.42;58.44;98820.53;4788388;29;19959;-70
2022/07/08 12:34:03;;;;;;;;;;;;;;;27.29;57.36;98820.06;4791896;29;19950;-68
2022/07/08 12:36:31;;;;;;;;;;;;;;;27.32;53.49;98813.28;4788603;29;19960;-68
2022/07/08 12:39:10;;;;;;;;;;;;;;;27.31;61.55;98815.38;4779947;30;19960;-68
2022/07/08 12:41:39;;;;;;;;;;;;;;;27.39;62.25;98810.03;4783743;30;19980;-69
2022/07/08 12:44:25;;;;;;;;;;;;;;;27.37;55.72;98813.38;4785913;29;19960;-69
2022/07/08 12:46:52;;;;;;;;;;;;;;;27.45;61.62;98818.75;4790213;29;20389;-69
2022/07/08 12:49:23;;;;;;;;;;;;;;;27.59;59.98;98809.28;4790750;29;20003;-67
2022/07/08 12:51:51;;;;;;;;;;;;;;;27.56;55.94;98811.06;4790374;30;20259;-70
2022/07/08 12:54:19;;;;;;;;;;;;;;;27.54;58.45;98812.84;4793396;29;19959;-67
2022/07/08 12:56:46;;;;;;;;;;;;;;;27.66;58.11;98808.84;4794455;29;20253;-68
2022/07/08 12:59:13;;;;;;;;;;;;;;;27.65;63.61;98807.28;4776839;30;19946;-68
2022/07/08 13:01:41;;;;;;;;;;;;;;;27.67;55.41;98802.63;4792128;29;20334;-68
2022/07/08 13:04:08;;;;;;;;;;;;;;;27.75;55.87;98800.91;4790096;30;19950;-68
2022/07/08 13:06:35;;;;;;;;;;;;;;;27.69;53.19;98807.84;4787333;29;19950;-67
2022/07/08 13:09:03;;;;;;;;;;;;;;;27.65;52.76;98808.06;4788349;29;19966;-66
2022/07/08 13:11:33;;;;;;;;;;;;;;;27.69;51.90;98808.63;4792147;29;19952;-67
2022/07/08 13:14:00;;;;;;;;;;;;;;;27.70;58.72;98801.63;4791163;30;19952;-67
2022/07/08 13:16:27;;;;;;;;;;;;;;;27.80;57.01;98808.78;4791427;29;19951;-67
2022/07/08 13:18:55;;;;;;;;;;;;;;;27.72;52.98;98804.78;4791342;30;19952;-67
2022/07/08 13:21:22;;;;;;;;;;;;;;;27.73;52.84;98794.84;4791160;30;19957;-67
2022/07/08 13:23:49;;;;;;;;;;;;;;;27.74;57.50;98807.13;4792104;30;19957;-68
2022/07/08 13:26:16;;;;;;;;;;;;;;;27.81;54.86;98798.06;4790867;29;19966;-67
2022/07/08 13:28:44;;;;;;;;;;;;;;;27.78;57.22;98808.50;4789900;29;19950;-67
2022/07/08 13:31:12;;;;;;;;;;;;;;;27.73;57.46;98817.81;4790220;30;19957;-68
2022/07/08 13:33:39;;;;;;;;;;;;;;;27.69;49.34;98802.91;4788800;30;19968;-68
2022/07/08 13:36:06;;;;;;;;;;;;;;;27.81;55.20;98800.94;4792639;30;20259;-67
2022/07/08 13:38:33;;;;;;;;;;;;;;;27.68;54.39;98789.81;4794923;30;20344;-68
2022/07/08 13:41:01;;;;;;;;;;;;;;;27.80;56.40;98808.00;4794200;30;19957;-68
2022/07/08 13:43:28;;;;;;;;;;;;;;;27.97;54.21;98809.00;4782415;30;20328;-68
2022/07/08 13:45:56;;;;;;;;;;;;;;;28.05;53.25;98810.16;4791498;30;20206;-68
2022/07/08 13:48:23;;;;;;;;;;;;;;;27.94;49.97;98816.56;4795129;30;19958;-68
2022/07/08 13:50:50;;;;;;;;;;;;;;;27.85;49.28;98808.06;4794559;29;19974;-67
2022/07/08 13:53:17;;;;;;;;;;;;;;;27.68;48.82;98803.41;4793440;30;20335;-67
2022/07/08 13:55:45;;;;;;;;;;;;;;;27.71;50.10;98800.31;4793246;30;19957;-67
2022/07/08 13:58:12;;;;;;;;;;;;;;;27.85;50.85;98804.41;4793365;30;19962;-67
2022/07/08 14:00:39;;;;;;;;;;;;;;;27.91;49.66;98805.25;4794114;30;19953;-67
2022/07/08 14:03:07;;;;;;;;;;;;;;;27.87;49.18;98814.13;4793693;30;21834;-68
2022/07/08 14:05:35;;;;;;;;;;;;;;;27.77;53.38;98809.81;4794987;29;19953;-67
2022/07/08 14:08:02;;;;;;;;;;;;;;;27.84;51.95;98809.38;4792366;29;19949;-68
2022/07/08 14:10:42;;;;;;;;;;;;;;;27.80;52.40;98808.78;4793795;29;19966;-68
2022/07/08 14:13:09;;;;;;;;;;;;;;;27.62;53.07;98805.41;4794820;30;19946;-68
2022/07/08 14:15:36;;;;;;;;;;;;;;;27.72;56.27;98807.66;4794293;30;20061;-68
2022/07/08 14:18:03;;;;;;;;;;;;;;;27.72;50.53;98804.78;4793787;30;19956;-68
2022/07/08 14:20:31;;;;;;;;;;;;;;;27.67;53.25;98796.06;4792665;30;20346;-68
2022/07/08 14:22:58;;;;;;;;;;;;;;;27.67;52.72;98796.88;4793798;30;19951;-68
2022/07/08 14:25:25;;;;;;;;;;;;;;;27.74;54.02;98799.31;4790744;29;19953;-68
2022/07/08 14:27:53;;;;;;;;;;;;;;;27.79;54.98;98792.03;4791812;30;19951;-68
2022/07/08 14:30:20;;;;;;;;;;;;;;;27.86;57.56;98785.88;4792373;30;19967;-68
2022/07/08 14:32:48;;;;;;;;;;;;;;;27.95;60.35;98795.13;4793895;30;20365;-67
2022/07/08 14:35:15;;;;;;;;;;;;;;;27.99;56.18;98792.84;4793801;30;19956;-67
2022/07/08 14:37:42;;;;;;;;;;;;;;;28.00;51.60;98796.50;4793593;30;19952;-68
2022/07/08 14:40:10;;;;;;;;;;;;;;;27.99;54.41;98792.84;4793786;30;19979;-69
2022/07/08 14:42:37;;;;;;;;;;;;;;;28.04;54.18;98788.47;4793393;29;19958;-68
2022/07/08 14:45:08;;;;;;;;;;;;;;;27.99;49.36;98798.59;4794067;30;19957;-68
2022/07/08 14:47:35;;;;;;;;;;;;;;;28.07;52.45;98796.09;4792717;29;19950;-69
2022/07/08 14:50:03;;;;;;;;;;;;;;;27.93;50.91;98789.09;4790299;30;19976;-68
2022/07/08 14:52:30;;;;;;;;;;;;;;;27.95;52.75;98785.75;4792810;30;19950;-68
2022/07/08 14:54:57;;;;;;;;;;;;;;;27.96;52.17;98785.22;4791693;30;19969;-68
2022/07/08 14:57:27;;;;;;;;;;;;;;;27.92;53.65;98784.66;4792952;30;19951;-68
2022/07/08 14:59:54;;;;;;;;;;;;;;;27.91;55.21;98777.31;4792875;29;19952;-68
2022/07/08 15:02:22;;;;;;;;;;;;;;;27.91;53.34;98780.19;4788188;29;19954;-67
2022/07/08 15:04:49;;;;;;;;;;;;;;;27.92;52.07;98781.78;4777673;30;19951;-67
2022/07/08 15:07:17;;;;;;;;;;;;;;;27.82;50.72;98783.22;4794099;29;19962;-68
2022/07/08 15:09:44;;;;;;;;;;;;;;;27.74;53.94;98782.06;4802792;29;20388;-68
2022/07/08 15:12:11;;;;;;;;;;;;;;;27.72;51.88;98780.97;4792941;30;20552;-68
2022/07/08 15:14:42;;;;;;;;;;;;;;;27.71;53.47;98782.25;4793978;29;19971;-67
2022/07/08 15:17:10;;;;;;;;;;;;;;;27.76;49.57;98776.59;4792253;30;20219;-67
2022/07/08 15:19:37;;;;;;;;;;;;;;;27.69;46.16;98776.22;4789224;30;20373;-67
2022/07/08 15:22:05;;;;;;;;;;;;;;;27.71;48.48;98774.44;4793313;30;19950;-67
2022/07/08 15:24:32;;;;;;;;;;;;;;;27.72;48.33;98775.25;4794029;30;19951;-68
2022/07/08 15:26:59;;;;;;;;;;;;;;;27.70;45.14;98769.22;4792662;30;19957;-68
2022/07/08 15:29:27;;;;;;;;;;;;;;;27.73;47.33;98768.97;4792312;30;19957;-68
2022/07/08 15:31:54;;;;;;;;;;;;;;;27.74;48.31;98761.16;4788187;29;19978;-68
2022/07/08 15:34:21;;;;;;;;;;;;;;;27.73;49.73;98759.59;4793321;29;19956;-69
2022/07/08 15:36:48;;;;;;;;;;;;;;;27.74;50.01;98766.91;4791177;30;19955;-68
2022/07/08 15:39:16;;;;;;;;;;;;;;;27.63;47.80;98758.91;4795845;29;19950;-68
2022/07/08 15:41:43;;;;;;;;;;;;;;;27.64;45.11;98765.47;4792919;30;19956;-68
2022/07/08 15:44:10;;;;;;;;;;;;;;;27.67;45.35;98762.38;4793138;30;19959;-68
2022/07/08 15:46:57;;;;;;;;;;;;;;;27.68;51.52;98761.06;4793217;30;19957;-68
2022/07/08 15:49:25;;;;;;;;;;;;;;;27.61;46.96;98767.25;4793229;30;19957;-68
2022/07/08 15:51:52;;;;;;;;;;;;;;;27.59;44.25;98758.34;4792642;30;19970;-68
2022/07/08 15:54:19;;;;;;;;;;;;;;;27.61;43.67;98755.75;4792970;30;19954;-68
2022/07/08 15:56:46;;;;;;;;;;;;;;;27.61;47.09;98757.88;4793030;30;19955;-69
2022/07/08 15:59:13;;;;;;;;;;;;;;;27.60;45.66;98757.06;4792213;29;19958;-68
2022/07/08 16:01:41;;;;;;;;;;;;;;;27.63;46.07;98755.28;4792713;30;19963;-68
2022/07/08 16:04:11;;;;;;;;;;;;;;;27.62;46.45;98748.72;4793017;30;19955;-68
2022/07/08 16:06:38;;;;;;;;;;;;;;;27.53;45.95;98751.75;4792396;29;19948;-68
2022/07/08 16:09:06;;;;;;;;;;;;;;;27.52;47.11;98752.25;4777183;30;19960;-68
2022/07/08 16:11:34;;;;;;;;;;;;;;;27.57;47.82;98743.69;4792841;30;19962;-68
2022/07/08 16:14:01;;;;;;;;;;;;;;;27.50;46.86;98746.22;4792860;30;20328;-68
2022/07/08 16:16:28;;;;;;;;;;;;;;;27.44;47.20;98746.13;4792888;30;20338;-68
2022/07/08 16:18:55;;;;;;;;;;;;;;;27.44;49.80;98751.88;4792760;30;19954;-68
2022/07/08 16:21:23;;;;;;;;;;;;;;;27.39;53.33;98746.06;4792478;30;19954;-68
2022/07/08 16:23:50;;;;;;;;;;;;;;;27.30;56.93;98749.81;4792728;30;19983;-68
2022/07/08 16:26:17;;;;;;;;;;;;;;;27.30;56.74;98744.06;4792580;30;19953;-68
2022/07/08 16:28:44;;;;;;;;;;;;;;;27.32;55.42;98744.38;4792429;30;19952;-68
2022/07/08 16:31:12;;;;;;;;;;;;;;;27.23;53.84;98742.44;4792153;30;20268;-69
2022/07/08 16:33:40;;;;;;;;;;;;;;;27.25;53.69;98739.03;4792070;30;19949;-68
2022/07/08 16:36:08;;;;;;;;;;;;;;;27.23;56.83;98750.25;4792244;30;19951;-68
2022/07/08 16:38:36;;;;;;;;;;;;;;;27.20;57.01;98745.50;4791546;30;19960;-68
2022/07/08 16:41:03;;;;;;;;;;;;;;;27.15;55.44;98749.06;4792658;30;19952;-68
2022/07/08 16:43:31;;;;;;;;;;;;;;;27.12;56.62;98747.22;4792018;30;19957;-68
2022/07/08 16:45:58;;;;;;;;;;;;;;;27.04;59.49;98743.97;4791963;30;19959;-68
2022/07/08 16:48:26;;;;;;;;;;;;;;;27.02;59.50;98743.66;4791703;30;19951;-68
2022/07/08 16:50:53;;;;;;;;;;;;;;;27.02;59.32;98743.66;4791328;30;19967;-68
2022/07/08 16:53:20;;;;;;;;;;;;;;;27.00;56.85;98751.97;4791836;30;19955;-68
2022/07/08 16:55:47;;;;;;;;;;;;;;;26.95;55.12;98752.69;4791981;30;20247;-68
2022/07/08 16:58:15;;;;;;;;;;;;;;;26.91;53.38;98752.09;4792990;29;19950;-68
2022/07/08 17:00:42;;;;;;;;;;;;;;;26.92;56.24;98741.41;4791008;30;19955;-68
2022/07/08 17:03:09;;;;;;;;;;;;;;;26.86;54.19;98746.28;4791819;30;19986;-68
2022/07/08 17:05:37;;;;;;;;;;;;;;;26.88;53.36;98749.44;4792173;30;19956;-68
2022/07/08 17:08:05;;;;;;;;;;;;;;;26.88;55.40;98755.97;4792037;30;19956;-68
2022/07/08 17:10:32;;;;;;;;;;;;;;;26.84;54.13;98749.66;4791443;29;19951;-68
2022/07/08 17:12:59;;;;;;;;;;;;;;;26.84;57.40;98745.97;4790412;30;20406;-69
2022/07/08 17:15:26;;;;;;;;;;;;;;;26.83;54.57;98753.00;4790881;30;19978;-68
2022/07/08 17:17:54;;;;;;;;;;;;;;;26.80;54.51;98748.28;4788344;30;19959;-68
2022/07/08 17:20:22;;;;;;;;;;;;;;;26.76;54.64;98748.47;4787829;30;20376;-68
2022/07/08 17:22:50;;;;;;;;;;;;;;;26.74;55.14;98757.56;4791854;30;19960;-68
2022/07/08 17:25:18;;;;;;;;;;;;;;;26.71;55.80;98755.66;4789537;30;19960;-68
2022/07/08 17:27:47;;;;;;;;;;;;;;;26.71;56.30;98754.88;4790036;30;19954;-68
2022/07/08 17:30:14;;;;;;;;;;;;;;;26.65;54.56;98754.78;4786796;30;19959;-68
2022/07/08 17:32:42;;;;;;;;;;;;;;;26.66;55.68;98756.38;4787678;30;19976;-68
2022/07/08 17:35:09;;;;;;;;;;;;;;;26.67;58.23;98748.56;4790386;30;19961;-68
2022/07/08 17:37:36;;;;;;;;;;;;;;;26.63;58.16;98745.88;4791190;30;19955;-68
2022/07/08 17:40:04;;;;;;;;;;;;;;;26.57;60.50;98744.19;4791996;30;20257;-68
2022/07/08 17:42:32;;;;;;;;;;;;;;;26.45;59.88;98748.16;4790559;30;19961;-68
2022/07/08 17:45:00;;;;;;;;;;;;;;;26.39;59.22;98748.06;4789530;30;19958;-68
2022/07/08 17:47:27;;;;;;;;;;;;;;;26.37;60.00;98738.38;4789901;30;19984;-68
2022/07/08 17:49:55;;;;;;;;;;;;;;;26.38;57.77;98751.44;4791369;29;19955;-68
2022/07/08 17:52:22;;;;;;;;;;;;;;;26.35;57.54;98741.75;4790319;30;19967;-68
2022/07/08 17:54:52;;;;;;;;;;;;;;;26.28;60.79;98742.13;4789439;30;19951;-68
2022/07/08 17:57:19;;;;;;;;;;;;;;;26.26;61.67;98750.44;4790952;30;19954;-68
2022/07/08 17:59:47;;;;;;;;;;;;;;;26.22;58.17;98741.22;4791420;30;19952;-68
2022/07/08 18:02:15;;;;;;;;;;;;;;;26.17;61.39;98735.38;4791147;30;19954;-68
2022/07/08 18:04:42;;;;;;;;;;;;;;;26.17;59.48;98739.03;4790860;30;19948;-68
2022/07/08 18:07:10;;;;;;;;;;;;;;;26.13;60.13;98738.47;4791006;30;19948;-68
2022/07/08 18:09:37;;;;;;;;;;;;;;;26.13;59.23;98738.47;4791005;30;19961;-68
2022/07/08 18:12:37;;;;;;;;;;;;;;;26.09;59.60;98735.75;4791249;30;19966;-68
2022/07/08 18:15:04;;;;;;;;;;;;;;;26.07;60.00;98744.06;4790508;30;19973;-68
2022/07/08 18:17:31;;;;;;;;;;;;;;;26.06;58.55;98741.69;4790920;30;19953;-68
2022/07/08 18:19:59;;;;;;;;;;;;;;;26.03;59.45;98754.13;4791195;30;19957;-68
2022/07/08 18:22:26;;;;;;;;;;;;;;;26.00;60.04;98749.38;4791942;29;19959;-69
2022/07/08 18:24:53;;;;;;;;;;;;;;;25.98;61.20;98751.94;4794818;30;19968;-68
2022/07/08 18:27:21;;;;;;;;;;;;;;;25.91;61.08;98758.84;4794572;30;19950;-68
2022/07/08 18:29:48;;;;;;;;;;;;;;;25.87;60.90;98752.50;4794365;30;20231;-68
2022/07/08 18:32:15;;;;;;;;;;;;;;;25.85;60.34;98754.28;4794205;30;20035;-68
2022/07/08 18:34:43;;;;;;;;;;;;;;;25.85;60.04;98748.53;4793792;30;20216;-68
2022/07/08 18:37:11;;;;;;;;;;;;;;;25.82;60.39;98755.28;4795286;30;19953;-68
2022/07/08 18:39:38;;;;;;;;;;;;;;;25.79;60.74;98753.38;4794729;30;20265;-68
2022/07/08 18:42:06;;;;;;;;;;;;;;;25.76;59.85;98760.88;4794496;30;19952;-68
2022/07/08 18:44:34;;;;;;;;;;;;;;;25.75;59.97;98767.13;4793841;30;19985;-68
2022/07/08 18:47:04;;;;;;;;;;;;;;;25.70;60.94;98756.34;4793862;30;19956;-68
2022/07/08 18:49:31;;;;;;;;;;;;;;;25.65;62.50;98759.88;4793868;30;20354;-68
2022/07/08 18:52:00;;;;;;;;;;;;;;;25.50;63.89;98756.16;4793733;30;19967;-68
2022/07/08 18:54:28;;;;;;;;;;;;;;;25.41;64.82;98749.16;4794529;30;19955;-68
2022/07/08 18:56:55;;;;;;;;;;;;;;;25.28;65.44;98759.28;4778414;30;19967;-68
2022/07/08 18:59:24;;;;;;;;;;;;;;;25.27;64.63;98755.63;4793818;30;19953;-68
2022/07/08 19:01:51;;;;;;;;;;;;;;;25.19;65.60;98760.13;4793600;30;20277;-68
2022/07/08 19:04:18;;;;;;;;;;;;;;;25.18;66.10;98760.63;4793620;30;19955;-68
2022/07/08 19:06:46;;;;;;;;;;;;;;;25.13;67.25;98755.56;4794223;30;19947;-68
2022/07/08 19:09:14;;;;;;;;;;;;;;;25.10;67.13;98762.25;4793569;30;19978;-68
2022/07/08 19:11:41;;;;;;;;;;;;;;;25.09;66.67;98755.72;4792440;30;19973;-68
2022/07/08 19:14:08;;;;;;;;;;;;;;;25.08;66.24;98762.75;4793777;30;20249;-68
2022/07/08 19:16:36;;;;;;;;;;;;;;;25.07;66.18;98761.16;4793020;30;19960;-68
2022/07/08 19:19:03;;;;;;;;;;;;;;;25.07;66.19;98771.78;4793216;30;19951;-68
2022/07/08 19:21:31;;;;;;;;;;;;;;;25.02;67.19;98776.09;4793431;30;20350;-68
2022/07/08 19:23:58;;;;;;;;;;;;;;;25.01;66.72;98780.25;4792094;30;20376;-68
2022/07/08 19:26:25;;;;;;;;;;;;;;;24.97;66.95;98782.50;4793347;30;19951;-75
2022/07/08 19:28:53;;;;;;;;;;;;;;;24.99;67.34;98784.88;4793256;30;19951;-75
2022/07/08 19:31:20;;;;;;;;;;;;;;;24.93;67.54;98786.81;4774342;29;19949;-75
2022/07/08 19:33:47;;;;;;;;;;;;;;;24.89;68.58;98784.13;4790594;29;19950;-75
2022/07/08 19:36:15;;;;;;;;;;;;;;;24.89;68.17;98795.56;4792877;30;19954;-75
2022/07/08 19:38:42;;;;;;;;;;;;;;;24.89;67.70;98797.66;4790561;30;19958;-75
2022/07/08 19:41:12;;;;;;;;;;;;;;;24.88;67.50;98796.84;4790723;30;19976;-76
2022/07/08 19:43:40;;;;;;;;;;;;;;;24.83;67.39;98796.69;4789527;30;19962;-74
2022/07/08 19:46:07;;;;;;;;;;;;;;;24.77;68.05;98808.78;4783975;30;19961;-75
2022/07/08 19:48:34;;;;;;;;;;;;;;;24.74;68.37;98814.66;4791843;30;19953;-74
2022/07/08 19:51:02;;;;;;;;;;;;;;;24.69;68.17;98813.25;4790071;30;19950;-75
2022/07/08 19:53:29;;;;;;;;;;;;;;;24.65;67.69;98811.81;4788662;29;19996;-75
2022/07/08 19:55:57;;;;;;;;;;;;;;;24.62;67.69;98815.66;4789137;30;19991;-75
2022/07/08 19:58:24;;;;;;;;;;;;;;;24.63;67.46;98814.38;4784428;30;19961;-75
2022/07/08 20:00:51;;;;;;;;;;;;;;;24.65;67.98;98815.47;4791743;30;19950;-74
2022/07/08 20:03:19;;;;;;;;;;;;;;;24.53;68.21;98824.22;4790796;30;19948;-74
2022/07/08 20:05:46;;;;;;;;;;;;;;;24.59;69.41;98820.25;4788865;30;19969;-75
2022/07/08 20:08:13;;;;;;;;;;;;;;;24.56;67.48;98821.22;4789409;30;19967;-75
2022/07/08 20:10:41;;;;;;;;;;;;;;;24.59;67.17;98831.72;4791416;30;19966;-75
2022/07/08 20:13:08;;;;;;;;;;;;;;;24.60;67.93;98832.50;4790907;30;19973;-75
2022/07/08 20:15:36;;;;;;;;;;;;;;;24.59;67.12;98833.75;4787466;30;20283;-74
2022/07/08 20:18:04;;;;;;;;;;;;;;;24.54;69.23;98831.56;4790957;30;20503;-75
2022/07/08 20:20:31;;;;;;;;;;;;;;;24.49;69.01;98832.19;4788317;29;19951;-74
2022/07/08 20:22:58;;;;;;;;;;;;;;;24.46;67.79;98836.81;4792372;29;19954;-75
2022/07/08 20:25:26;;;;;;;;;;;;;;;24.43;67.18;98839.84;4791763;30;19955;-75
2022/07/08 20:27:53;;;;;;;;;;;;;;;24.43;67.43;98846.31;4790454;30;19953;-74
2022/07/08 20:30:22;;;;;;;;;;;;;;;24.36;69.13;98848.72;4790995;30;19950;-75
2022/07/08 20:32:49;;;;;;;;;;;;;;;24.37;68.55;98856.03;4791696;30;19977;-75
2022/07/08 20:35:16;;;;;;;;;;;;;;;24.33;68.65;98846.84;4791146;30;19957;-75
2022/07/08 20:37:44;;;;;;;;;;;;;;;24.32;67.67;98856.66;4788351;30;19970;-75
2022/07/08 20:40:12;;;;;;;;;;;;;;;24.27;68.44;98860.97;4790704;30;20352;-75
2022/07/08 20:42:39;;;;;;;;;;;;;;;24.26;67.67;98858.59;4776008;30;20254;-75
2022/07/08 20:45:06;;;;;;;;;;;;;;;24.23;67.28;98866.06;4790692;30;19957;-75
2022/07/08 20:47:35;;;;;;;;;;;;;;;24.24;67.58;98861.91;4790850;30;19952;-75
2022/07/08 20:50:03;;;;;;;;;;;;;;;24.23;67.16;98862.41;4788201;30;19948;-75
2022/07/08 20:52:32;;;;;;;;;;;;;;;24.25;66.97;98862.72;4790909;30;19977;-75
2022/07/08 20:55:00;;;;;;;;;;;;;;;24.31;69.90;98861.59;4786930;30;19958;-75
2022/07/08 20:57:28;;;;;;;;;;;;;;;24.33;72.70;98873.34;4788069;29;19954;-67
2022/07/08 20:59:56;;;;;;;;;;;;;;;24.23;74.23;98868.91;4788883;30;19949;-68
2022/07/08 21:02:23;;;;;;;;;;;;;;;24.12;74.33;98875.09;4790176;30;19950;-67
2022/07/08 21:04:52;;;;;;;;;;;;;;;23.98;74.06;98874.91;4786049;29;20257;-68
2022/07/08 21:07:22;;;;;;;;;;;;;;;23.89;75.29;98872.03;4789356;30;20370;-67
2022/07/08 21:09:49;;;;;;;;;;;;;;;23.73;76.54;98864.53;4791507;29;19947;-68
2022/07/08 21:12:17;;;;;;;;;;;;;;;23.62;76.37;98875.63;4790764;29;19990;-68
2022/07/08 21:14:44;;;;;;;;;;;;;;;23.46;75.42;98881.59;4790420;29;20286;-67
2022/07/08 21:17:12;;;;;;;;;;;;;;;23.31;77.42;98878.50;4790143;30;19951;-67
2022/07/08 21:19:39;;;;;;;;;;;;;;;23.11;78.71;98878.09;4788956;30;19959;-67
2022/07/08 21:22:06;;;;;;;;;;;;;;;22.97;77.60;98881.50;4786360;30;19949;-67
2022/07/08 21:24:34;;;;;;;;;;;;;;;22.93;77.20;98878.00;4788050;29;19954;-67
2022/07/08 21:27:01;;;;;;;;;;;;;;;22.89;76.85;98878.13;4787959;29;19953;-67
2022/07/08 21:29:29;;;;;;;;;;;;;;;22.84;77.29;98881.59;4787511;29;20326;-67
2022/07/08 21:55:15;;;;;;;;;;;;;;;22.43;80.33;98889.66;4790942;29;19947;-67
2022/07/08 21:57:43;;;;;;;;;;;;;;;22.42;79.06;98893.81;4792514;29;19949;-67
